sensor_id;sensor_type;location;lat;lon;timestamp;P1;durP1;ratioP1;P2;durP2;ratioP2
58222;SDS011;44020;50.890;15.796;2022-09-09T00:03:23;3.90;;;2.70;;
58222;SDS011;44020;50.890;15.796;2022-09-09T00:31:04;4.20;;;3.20;;
58222;SDS011;44020;50.890;15.796;2022-09-09T01:37:44;3.00;;;1.20;;
58222;SDS011;44020;50.890;15.796;2022-09-09T01:49:52;1.90;;;1.40;;
58222;SDS011;44020;50.890;15.796;2022-09-09T02:02:32;2.70;;;1.60;;
58222;SDS011;44020;50.890;15.796;2022-09-09T02:07:48;3.10;;;1.50;;
58222;SDS011;44020;50.890;15.796;2022-09-09T02:10:20;3.60;;;1.60;;
58222;SDS011;44020;50.890;15.796;2022-09-09T02:12:52;2.20;;;1.40;;
58222;SDS011;44020;50.890;15.796;2022-09-09T02:15:28;2.10;;;1.50;;
58222;SDS011;44020;50.890;15.796;2022-09-09T02:18:08;3.20;;;1.30;;
58222;SDS011;44020;50.890;15.796;2022-09-09T02:20:39;4.60;;;1.60;;
58222;SDS011;44020;50.890;15.796;2022-09-09T02:23:09;3.10;;;1.40;;
58222;SDS011;44020;50.890;15.796;2022-09-09T02:25:37;2.00;;;1.20;;
58222;SDS011;44020;50.890;15.796;2022-09-09T02:28:08;2.40;;;1.30;;
58222;SDS011;44020;50.890;15.796;2022-09-09T02:30:37;2.90;;;1.40;;
58222;SDS011;44020;50.890;15.796;2022-09-09T02:33:06;1.50;;;1.10;;
58222;SDS011;44020;50.890;15.796;2022-09-09T02:35:37;2.00;;;1.10;;
58222;SDS011;44020;50.890;15.796;2022-09-09T02:38:08;2.50;;;1.30;;
58222;SDS011;44020;50.890;15.796;2022-09-09T02:40:38;1.60;;;1.10;;
58222;SDS011;44020;50.890;15.796;2022-09-09T02:43:05;7.00;;;1.30;;
58222;SDS011;44020;50.890;15.796;2022-09-09T02:45:38;2.60;;;1.10;;
58222;SDS011;44020;50.890;15.796;2022-09-09T02:48:30;1.30;;;1.00;;
58222;SDS011;44020;50.890;15.796;2022-09-09T02:57:01;3.50;;;1.20;;
58222;SDS011;44020;50.890;15.796;2022-09-09T02:59:33;3.20;;;1.40;;
58222;SDS011;44020;50.890;15.796;2022-09-09T03:02:00;4.00;;;1.50;;
58222;SDS011;44020;50.890;15.796;2022-09-09T03:04:27;1.70;;;1.40;;
58222;SDS011;44020;50.890;15.796;2022-09-09T03:06:55;2.20;;;1.40;;
58222;SDS011;44020;50.890;15.796;2022-09-09T03:09:22;2.00;;;1.50;;
58222;SDS011;44020;50.890;15.796;2022-09-09T03:11:50;1.60;;;1.30;;
58222;SDS011;44020;50.890;15.796;2022-09-09T03:14:17;2.70;;;1.50;;
58222;SDS011;44020;50.890;15.796;2022-09-09T03:16:47;1.60;;;1.50;;
58222;SDS011;44020;50.890;15.796;2022-09-09T03:19:15;2.50;;;1.30;;
58222;SDS011;44020;50.890;15.796;2022-09-09T03:21:41;2.40;;;1.00;;
58222;SDS011;44020;50.890;15.796;2022-09-09T03:24:08;1.30;;;1.20;;
58222;SDS011;44020;50.890;15.796;2022-09-09T03:26:36;6.40;;;1.40;;
58222;SDS011;44020;50.890;15.796;2022-09-09T03:29:04;3.10;;;1.60;;
58222;SDS011;44020;50.890;15.796;2022-09-09T03:31:33;2.20;;;1.70;;
58222;SDS011;44020;50.890;15.796;2022-09-09T03:34:01;5.20;;;2.40;;
58222;SDS011;44020;50.890;15.796;2022-09-09T03:36:29;5.00;;;1.80;;
58222;SDS011;44020;50.890;15.796;2022-09-09T03:38:56;4.00;;;1.70;;
58222;SDS011;44020;50.890;15.796;2022-09-09T03:41:24;3.20;;;1.70;;
58222;SDS011;44020;50.890;15.796;2022-09-09T03:43:52;2.30;;;1.50;;
58222;SDS011;44020;50.890;15.796;2022-09-09T03:46:21;3.30;;;1.60;;
58222;SDS011;44020;50.890;15.796;2022-09-09T03:48:50;3.00;;;1.70;;
58222;SDS011;44020;50.890;15.796;2022-09-09T03:51:18;2.20;;;1.80;;
58222;SDS011;44020;50.890;15.796;2022-09-09T03:53:46;2.30;;;1.50;;
58222;SDS011;44020;50.890;15.796;2022-09-09T03:56:13;4.10;;;1.60;;
58222;SDS011;44020;50.890;15.796;2022-09-09T03:58:40;2.80;;;1.30;;
58222;SDS011;44020;50.890;15.796;2022-09-09T04:01:09;3.50;;;1.40;;
58222;SDS011;44020;50.890;15.796;2022-09-09T04:03:41;1.70;;;1.10;;
58222;SDS011;44020;50.890;15.796;2022-09-09T04:06:09;2.80;;;1.40;;
58222;SDS011;44020;50.890;15.796;2022-09-09T04:08:38;1.30;;;1.10;;
58222;SDS011;44020;50.890;15.796;2022-09-09T04:11:06;2.00;;;1.30;;
58222;SDS011;44020;50.890;15.796;2022-09-09T04:13:34;1.90;;;1.40;;
58222;SDS011;44020;50.890;15.796;2022-09-09T04:16:04;2.40;;;1.90;;
58222;SDS011;44020;50.890;15.796;2022-09-09T04:18:32;3.50;;;2.40;;
58222;SDS011;44020;50.890;15.796;2022-09-09T04:21:01;3.20;;;2.10;;
58222;SDS011;44020;50.890;15.796;2022-09-09T04:23:29;3.70;;;2.40;;
58222;SDS011;44020;50.890;15.796;2022-09-09T04:25:57;3.40;;;2.20;;
58222;SDS011;44020;50.890;15.796;2022-09-09T04:28:26;10.40;;;4.50;;
58222;SDS011;44020;50.890;15.796;2022-09-09T04:30:55;4.80;;;4.00;;
58222;SDS011;44020;50.890;15.796;2022-09-09T04:33:23;5.70;;;3.50;;
58222;SDS011;44020;50.890;15.796;2022-09-09T04:35:54;5.60;;;3.50;;
58222;SDS011;44020;50.890;15.796;2022-09-09T04:38:21;3.80;;;2.80;;
58222;SDS011;44020;50.890;15.796;2022-09-09T04:40:50;4.20;;;2.80;;
58222;SDS011;44020;50.890;15.796;2022-09-09T04:43:18;5.30;;;2.70;;
58222;SDS011;44020;50.890;15.796;2022-09-09T04:45:48;6.40;;;2.90;;
58222;SDS011;44020;50.890;15.796;2022-09-09T04:48:17;5.30;;;3.30;;
58222;SDS011;44020;50.890;15.796;2022-09-09T04:50:53;4.40;;;3.30;;
58222;SDS011;44020;50.890;15.796;2022-09-09T04:53:23;3.30;;;2.80;;
58222;SDS011;44020;50.890;15.796;2022-09-09T04:55:50;3.70;;;2.90;;
58222;SDS011;44020;50.890;15.796;2022-09-09T04:58:17;3.30;;;2.50;;
58222;SDS011;44020;50.890;15.796;2022-09-09T05:00:44;4.30;;;2.30;;
58222;SDS011;44020;50.890;15.796;2022-09-09T05:03:11;4.00;;;2.60;;
58222;SDS011;44020;50.890;15.796;2022-09-09T05:05:39;3.60;;;2.20;;
58222;SDS011;44020;50.890;15.796;2022-09-09T05:08:06;3.00;;;2.00;;
58222;SDS011;44020;50.890;15.796;2022-09-09T05:10:36;2.90;;;2.00;;
58222;SDS011;44020;50.890;15.796;2022-09-09T05:13:05;2.40;;;1.90;;
58222;SDS011;44020;50.890;15.796;2022-09-09T05:15:33;3.00;;;1.90;;
58222;SDS011;44020;50.890;15.796;2022-09-09T05:18:00;4.50;;;2.20;;
58222;SDS011;44020;50.890;15.796;2022-09-09T05:20:28;3.20;;;2.20;;
58222;SDS011;44020;50.890;15.796;2022-09-09T05:22:55;2.20;;;2.00;;
58222;SDS011;44020;50.890;15.796;2022-09-09T05:25:23;4.60;;;2.20;;
58222;SDS011;44020;50.890;15.796;2022-09-09T05:27:52;3.30;;;1.90;;
58222;SDS011;44020;50.890;15.796;2022-09-09T05:30:20;2.80;;;2.10;;
58222;SDS011;44020;50.890;15.796;2022-09-09T05:32:49;2.70;;;2.00;;
58222;SDS011;44020;50.890;15.796;2022-09-09T05:35:16;3.50;;;1.90;;
58222;SDS011;44020;50.890;15.796;2022-09-09T05:37:45;3.90;;;2.20;;
58222;SDS011;44020;50.890;15.796;2022-09-09T05:40:12;3.60;;;2.00;;
58222;SDS011;44020;50.890;15.796;2022-09-09T05:42:39;3.00;;;2.10;;
58222;SDS011;44020;50.890;15.796;2022-09-09T05:45:08;2.30;;;1.70;;
58222;SDS011;44020;50.890;15.796;2022-09-09T05:47:36;2.80;;;1.90;;
58222;SDS011;44020;50.890;15.796;2022-09-09T05:50:03;2.70;;;1.90;;
58222;SDS011;44020;50.890;15.796;2022-09-09T05:52:31;2.60;;;1.80;;
58222;SDS011;44020;50.890;15.796;2022-09-09T05:54:58;3.10;;;1.80;;
58222;SDS011;44020;50.890;15.796;2022-09-09T05:57:26;2.90;;;2.50;;
58222;SDS011;44020;50.890;15.796;2022-09-09T05:59:53;3.10;;;2.40;;
58222;SDS011;44020;50.890;15.796;2022-09-09T06:02:20;5.70;;;2.20;;
58222;SDS011;44020;50.890;15.796;2022-09-09T06:04:47;3.90;;;2.50;;
58222;SDS011;44020;50.890;15.796;2022-09-09T06:07:14;5.00;;;2.10;;
58222;SDS011;44020;50.890;15.796;2022-09-09T06:09:41;3.00;;;1.80;;
58222;SDS011;44020;50.890;15.796;2022-09-09T06:12:07;2.40;;;2.10;;
58222;SDS011;44020;50.890;15.796;2022-09-09T06:14:35;2.60;;;2.00;;
58222;SDS011;44020;50.890;15.796;2022-09-09T06:17:03;2.90;;;2.10;;
58222;SDS011;44020;50.890;15.796;2022-09-09T06:19:30;6.80;;;2.00;;
58222;SDS011;44020;50.890;15.796;2022-09-09T06:21:57;3.30;;;1.80;;
58222;SDS011;44020;50.890;15.796;2022-09-09T06:24:25;5.80;;;1.90;;
58222;SDS011;44020;50.890;15.796;2022-09-09T06:26:52;2.50;;;1.90;;
58222;SDS011;44020;50.890;15.796;2022-09-09T06:29:20;4.50;;;1.80;;
58222;SDS011;44020;50.890;15.796;2022-09-09T06:31:47;2.90;;;1.80;;
58222;SDS011;44020;50.890;15.796;2022-09-09T06:34:14;4.80;;;1.70;;
58222;SDS011;44020;50.890;15.796;2022-09-09T06:36:41;3.30;;;1.70;;
58222;SDS011;44020;50.890;15.796;2022-09-09T06:39:08;2.30;;;1.60;;
58222;SDS011;44020;50.890;15.796;2022-09-09T06:41:37;2.50;;;1.60;;
58222;SDS011;44020;50.890;15.796;2022-09-09T06:44:05;2.60;;;1.60;;
58222;SDS011;44020;50.890;15.796;2022-09-09T06:46:32;3.40;;;1.70;;
58222;SDS011;44020;50.890;15.796;2022-09-09T06:48:59;2.20;;;1.70;;
58222;SDS011;44020;50.890;15.796;2022-09-09T06:51:28;2.10;;;1.70;;
58222;SDS011;44020;50.890;15.796;2022-09-09T06:53:57;2.20;;;1.50;;
58222;SDS011;44020;50.890;15.796;2022-09-09T06:56:27;1.90;;;1.60;;
58222;SDS011;44020;50.890;15.796;2022-09-09T06:58:57;2.10;;;1.70;;
58222;SDS011;44020;50.890;15.796;2022-09-09T07:01:34;4.00;;;2.10;;
58222;SDS011;44020;50.890;15.796;2022-09-09T07:04:03;3.90;;;2.10;;
58222;SDS011;44020;50.890;15.796;2022-09-09T07:06:35;2.90;;;1.60;;
58222;SDS011;44020;50.890;15.796;2022-09-09T07:09:07;6.20;;;2.20;;
58222;SDS011;44020;50.890;15.796;2022-09-09T07:11:39;2.40;;;2.10;;
58222;SDS011;44020;50.890;15.796;2022-09-09T07:14:10;3.40;;;2.10;;
58222;SDS011;44020;50.890;15.796;2022-09-09T07:16:44;5.00;;;2.30;;
58222;SDS011;44020;50.890;15.796;2022-09-09T07:19:12;3.40;;;1.90;;
58222;SDS011;44020;50.890;15.796;2022-09-09T07:21:41;3.40;;;2.10;;
58222;SDS011;44020;50.890;15.796;2022-09-09T07:24:08;5.00;;;2.40;;
58222;SDS011;44020;50.890;15.796;2022-09-09T07:26:37;5.50;;;2.70;;
58222;SDS011;44020;50.890;15.796;2022-09-09T07:29:05;8.30;;;2.30;;
58222;SDS011;44020;50.890;15.796;2022-09-09T07:31:33;4.70;;;3.10;;
58222;SDS011;44020;50.890;15.796;2022-09-09T07:34:03;3.90;;;2.90;;
58222;SDS011;44020;50.890;15.796;2022-09-09T07:36:35;4.20;;;3.30;;
58222;SDS011;44020;50.890;15.796;2022-09-09T07:39:11;4.80;;;2.40;;
58222;SDS011;44020;50.890;15.796;2022-09-09T07:41:43;6.40;;;2.80;;
58222;SDS011;44020;50.890;15.796;2022-09-09T07:44:13;4.60;;;2.80;;
58222;SDS011;44020;50.890;15.796;2022-09-09T07:46:41;4.10;;;2.80;;
58222;SDS011;44020;50.890;15.796;2022-09-09T07:49:09;2.70;;;2.40;;
58222;SDS011;44020;50.890;15.796;2022-09-09T07:51:39;3.90;;;2.60;;
58222;SDS011;44020;50.890;15.796;2022-09-09T07:54:09;5.50;;;2.90;;
58222;SDS011;44020;50.890;15.796;2022-09-09T07:56:38;3.90;;;2.80;;
58222;SDS011;44020;50.890;15.796;2022-09-09T07:59:06;4.80;;;2.80;;
58222;SDS011;44020;50.890;15.796;2022-09-09T08:01:34;3.50;;;2.10;;
58222;SDS011;44020;50.890;15.796;2022-09-09T08:04:13;4.20;;;2.70;;
58222;SDS011;44020;50.890;15.796;2022-09-09T08:07:01;4.40;;;2.80;;
58222;SDS011;44020;50.890;15.796;2022-09-09T08:09:29;4.70;;;2.80;;
58222;SDS011;44020;50.890;15.796;2022-09-09T08:11:58;4.50;;;2.40;;
58222;SDS011;44020;50.890;15.796;2022-09-09T08:14:26;4.30;;;2.40;;
58222;SDS011;44020;50.890;15.796;2022-09-09T08:16:53;2.50;;;2.10;;
58222;SDS011;44020;50.890;15.796;2022-09-09T08:19:20;3.90;;;2.10;;
58222;SDS011;44020;50.890;15.796;2022-09-09T08:21:47;4.40;;;2.10;;
58222;SDS011;44020;50.890;15.796;2022-09-09T08:24:15;3.30;;;1.90;;
58222;SDS011;44020;50.890;15.796;2022-09-09T08:26:43;2.80;;;1.60;;
58222;SDS011;44020;50.890;15.796;2022-09-09T08:29:12;2.60;;;1.60;;
58222;SDS011;44020;50.890;15.796;2022-09-09T08:31:42;2.80;;;1.40;;
58222;SDS011;44020;50.890;15.796;2022-09-09T08:34:11;5.00;;;1.50;;
58222;SDS011;44020;50.890;15.796;2022-09-09T08:36:42;4.00;;;1.60;;
58222;SDS011;44020;50.890;15.796;2022-09-09T08:39:11;3.40;;;1.40;;
58222;SDS011;44020;50.890;15.796;2022-09-09T08:55:41;1.70;;;1.10;;
58222;SDS011;44020;50.890;15.796;2022-09-09T08:58:17;2.40;;;1.00;;
58222;SDS011;44020;50.890;15.796;2022-09-09T09:09:08;1.80;;;0.70;;
58222;SDS011;44020;50.890;15.796;2022-09-09T09:11:50;3.30;;;0.80;;
58222;SDS011;44020;50.890;15.796;2022-09-09T09:14:28;2.80;;;0.90;;
58222;SDS011;44020;50.890;15.796;2022-09-09T09:19:30;2.40;;;1.00;;
58222;SDS011;44020;50.890;15.796;2022-09-09T09:27:41;1.70;;;0.80;;
58222;SDS011;44020;50.890;15.796;2022-09-09T09:30:15;2.50;;;0.60;;
58222;SDS011;44020;50.890;15.796;2022-09-09T09:33:02;2.10;;;0.40;;
58222;SDS011;44020;50.890;15.796;2022-09-09T09:35:29;0.80;;;0.30;;
58222;SDS011;44020;50.890;15.796;2022-09-09T09:37:56;1.60;;;0.50;;
58222;SDS011;44020;50.890;15.796;2022-09-09T09:40:24;2.70;;;0.60;;
58222;SDS011;44020;50.890;15.796;2022-09-09T09:42:51;2.00;;;0.50;;
58222;SDS011;44020;50.890;15.796;2022-09-09T09:48:08;1.20;;;0.40;;
58222;SDS011;44020;50.890;15.796;2022-09-09T09:50:47;1.60;;;0.50;;
58222;SDS011;44020;50.890;15.796;2022-09-09T09:58:30;2.60;;;0.50;;
58222;SDS011;44020;50.890;15.796;2022-09-09T10:01:01;1.80;;;0.40;;
58222;SDS011;44020;50.890;15.796;2022-09-09T10:03:32;1.80;;;0.40;;
58222;SDS011;44020;50.890;15.796;2022-09-09T10:06:06;2.30;;;0.30;;
58222;SDS011;44020;50.890;15.796;2022-09-09T10:08:34;1.20;;;0.40;;
58222;SDS011;44020;50.890;15.796;2022-09-09T10:11:23;1.80;;;0.60;;
58222;SDS011;44020;50.890;15.796;2022-09-09T10:14:21;2.70;;;0.50;;
58222;SDS011;44020;50.890;15.796;2022-09-09T10:22:52;1.90;;;0.40;;
58222;SDS011;44020;50.890;15.796;2022-09-09T10:33:55;1.70;;;0.50;;
58222;SDS011;44020;50.890;15.796;2022-09-09T10:36:27;0.90;;;0.50;;
58222;SDS011;44020;50.890;15.796;2022-09-09T10:39:18;0.90;;;0.20;;
58222;SDS011;44020;50.890;15.796;2022-09-09T10:50:40;1.30;;;0.70;;
58222;SDS011;44020;50.890;15.796;2022-09-09T10:55:48;17.80;;;8.60;;
58222;SDS011;44020;50.890;15.796;2022-09-09T10:58:22;11.10;;;4.60;;
58222;SDS011;44020;50.890;15.796;2022-09-09T11:00:55;2.50;;;0.90;;
58222;SDS011;44020;50.890;15.796;2022-09-09T11:03:28;2.90;;;1.00;;
58222;SDS011;44020;50.890;15.796;2022-09-09T11:06:00;2.80;;;1.00;;
58222;SDS011;44020;50.890;15.796;2022-09-09T11:08:32;2.20;;;0.60;;
58222;SDS011;44020;50.890;15.796;2022-09-09T11:16:30;0.90;;;0.40;;
58222;SDS011;44020;50.890;15.796;2022-09-09T11:19:17;3.40;;;0.50;;
58222;SDS011;44020;50.890;15.796;2022-09-09T11:21:52;2.40;;;0.40;;
58222;SDS011;44020;50.890;15.796;2022-09-09T11:24:23;1.90;;;0.40;;
58222;SDS011;44020;50.890;15.796;2022-09-09T11:40:44;1.30;;;0.40;;
58222;SDS011;44020;50.890;15.796;2022-09-09T11:46:01;1.30;;;0.40;;
58222;SDS011;44020;50.890;15.796;2022-09-09T11:48:33;2.20;;;0.50;;
58222;SDS011;44020;50.890;15.796;2022-09-09T11:51:05;2.40;;;0.50;;
58222;SDS011;44020;50.890;15.796;2022-09-09T11:53:35;1.90;;;0.30;;
58222;SDS011;44020;50.890;15.796;2022-09-09T11:56:32;1.50;;;0.40;;
58222;SDS011;44020;50.890;15.796;2022-09-09T11:59:05;2.00;;;0.50;;
58222;SDS011;44020;50.890;15.796;2022-09-09T12:01:45;2.30;;;0.40;;
58222;SDS011;44020;50.890;15.796;2022-09-09T12:04:29;3.40;;;0.90;;
58222;SDS011;44020;50.890;15.796;2022-09-09T12:12:06;1.80;;;0.40;;
58222;SDS011;44020;50.890;15.796;2022-09-09T12:19:42;1.80;;;0.40;;
58222;SDS011;44020;50.890;15.796;2022-09-09T12:28:17;1.30;;;0.50;;
58222;SDS011;44020;50.890;15.796;2022-09-09T12:30:53;1.30;;;0.50;;
58222;SDS011;44020;50.890;15.796;2022-09-09T12:33:22;1.90;;;0.50;;
58222;SDS011;44020;50.890;15.796;2022-09-09T12:35:53;1.30;;;0.50;;
58222;SDS011;44020;50.890;15.796;2022-09-09T12:38:32;2.90;;;0.60;;
58222;SDS011;44020;50.890;15.796;2022-09-09T12:41:02;1.10;;;0.40;;
58222;SDS011;44020;50.890;15.796;2022-09-09T12:43:29;1.90;;;0.50;;
58222;SDS011;44020;50.890;15.796;2022-09-09T12:46:00;1.80;;;0.70;;
58222;SDS011;44020;50.890;15.796;2022-09-09T12:48:39;1.00;;;0.50;;
58222;SDS011;44020;50.890;15.796;2022-09-09T12:51:32;3.90;;;0.60;;
58222;SDS011;44020;50.890;15.796;2022-09-09T12:53:59;1.10;;;0.60;;
58222;SDS011;44020;50.890;15.796;2022-09-09T12:56:28;1.20;;;0.50;;
58222;SDS011;44020;50.890;15.796;2022-09-09T12:58:58;2.00;;;0.70;;
58222;SDS011;44020;50.890;15.796;2022-09-09T13:01:26;2.80;;;0.90;;
58222;SDS011;44020;50.890;15.796;2022-09-09T13:03:59;2.70;;;0.70;;
58222;SDS011;44020;50.890;15.796;2022-09-09T13:06:30;2.60;;;0.80;;
58222;SDS011;44020;50.890;15.796;2022-09-09T13:08:59;1.30;;;0.60;;
58222;SDS011;44020;50.890;15.796;2022-09-09T13:11:40;2.70;;;0.60;;
58222;SDS011;44020;50.890;15.796;2022-09-09T13:14:15;2.40;;;0.60;;
58222;SDS011;44020;50.890;15.796;2022-09-09T13:16:56;1.40;;;0.60;;
58222;SDS011;44020;50.890;15.796;2022-09-09T13:19:25;2.90;;;0.70;;
58222;SDS011;44020;50.890;15.796;2022-09-09T13:21:55;4.10;;;0.70;;
58222;SDS011;44020;50.890;15.796;2022-09-09T13:24:32;1.10;;;0.50;;
58222;SDS011;44020;50.890;15.796;2022-09-09T13:27:02;0.90;;;0.50;;
58222;SDS011;44020;50.890;15.796;2022-09-09T13:29:31;1.90;;;0.50;;
58222;SDS011;44020;50.890;15.796;2022-09-09T13:32:05;1.60;;;0.60;;
58222;SDS011;44020;50.890;15.796;2022-09-09T13:34:39;1.30;;;0.40;;
58222;SDS011;44020;50.890;15.796;2022-09-09T13:37:27;1.10;;;0.50;;
58222;SDS011;44020;50.890;15.796;2022-09-09T13:39:59;1.90;;;0.40;;
58222;SDS011;44020;50.890;15.796;2022-09-09T13:42:29;2.40;;;0.70;;
58222;SDS011;44020;50.890;15.796;2022-09-09T13:45:01;1.60;;;0.70;;
58222;SDS011;44020;50.890;15.796;2022-09-09T13:47:34;2.10;;;0.70;;
58222;SDS011;44020;50.890;15.796;2022-09-09T13:50:18;6.10;;;0.80;;
58222;SDS011;44020;50.890;15.796;2022-09-09T13:52:48;2.40;;;0.80;;
58222;SDS011;44020;50.890;15.796;2022-09-09T13:55:18;1.50;;;0.80;;
58222;SDS011;44020;50.890;15.796;2022-09-09T13:57:54;2.70;;;0.60;;
58222;SDS011;44020;50.890;15.796;2022-09-09T14:00:32;2.40;;;0.70;;
58222;SDS011;44020;50.890;15.796;2022-09-09T14:03:00;2.50;;;0.70;;
58222;SDS011;44020;50.890;15.796;2022-09-09T14:05:31;1.70;;;0.50;;
58222;SDS011;44020;50.890;15.796;2022-09-09T14:08:00;1.70;;;0.50;;
58222;SDS011;44020;50.890;15.796;2022-09-09T14:10:29;2.20;;;0.60;;
58222;SDS011;44020;50.890;15.796;2022-09-09T14:12:56;6.60;;;0.70;;
58222;SDS011;44020;50.890;15.796;2022-09-09T14:15:23;1.50;;;0.70;;
58222;SDS011;44020;50.890;15.796;2022-09-09T14:17:50;1.50;;;0.50;;
58222;SDS011;44020;50.890;15.796;2022-09-09T14:20:18;4.20;;;0.60;;
58222;SDS011;44020;50.890;15.796;2022-09-09T14:22:45;2.60;;;0.60;;
58222;SDS011;44020;50.890;15.796;2022-09-09T14:25:12;1.50;;;0.90;;
58222;SDS011;44020;50.890;15.796;2022-09-09T14:27:40;2.10;;;0.70;;
58222;SDS011;44020;50.890;15.796;2022-09-09T14:30:07;1.30;;;0.60;;
58222;SDS011;44020;50.890;15.796;2022-09-09T14:32:34;2.30;;;0.70;;
58222;SDS011;44020;50.890;15.796;2022-09-09T14:35:01;0.90;;;0.60;;
58222;SDS011;44020;50.890;15.796;2022-09-09T14:37:28;2.00;;;0.80;;
58222;SDS011;44020;50.890;15.796;2022-09-09T14:39:57;2.70;;;0.80;;
58222;SDS011;44020;50.890;15.796;2022-09-09T14:44:56;2.40;;;0.90;;
58222;SDS011;44020;50.890;15.796;2022-09-09T14:47:23;1.90;;;0.80;;
58222;SDS011;44020;50.890;15.796;2022-09-09T14:49:50;3.20;;;0.90;;
58222;SDS011;44020;50.890;15.796;2022-09-09T14:52:17;2.80;;;1.00;;
58222;SDS011;44020;50.890;15.796;2022-09-09T14:54:44;2.40;;;0.90;;
58222;SDS011;44020;50.890;15.796;2022-09-09T14:57:11;2.60;;;0.90;;
58222;SDS011;44020;50.890;15.796;2022-09-09T14:59:38;2.80;;;1.10;;
58222;SDS011;44020;50.890;15.796;2022-09-09T15:02:05;3.70;;;0.90;;
58222;SDS011;44020;50.890;15.796;2022-09-09T15:04:32;3.20;;;0.90;;
58222;SDS011;44020;50.890;15.796;2022-09-09T15:06:59;2.50;;;0.70;;
58222;SDS011;44020;50.890;15.796;2022-09-09T15:09:26;1.90;;;1.00;;
58222;SDS011;44020;50.890;15.796;2022-09-09T15:11:53;2.20;;;0.90;;
58222;SDS011;44020;50.890;15.796;2022-09-09T15:14:20;2.90;;;1.10;;
58222;SDS011;44020;50.890;15.796;2022-09-09T15:16:47;2.00;;;0.90;;
58222;SDS011;44020;50.890;15.796;2022-09-09T15:19:14;2.40;;;1.00;;
58222;SDS011;44020;50.890;15.796;2022-09-09T15:21:41;3.10;;;1.00;;
58222;SDS011;44020;50.890;15.796;2022-09-09T15:24:08;1.80;;;0.80;;
58222;SDS011;44020;50.890;15.796;2022-09-09T15:26:35;2.40;;;0.80;;
58222;SDS011;44020;50.890;15.796;2022-09-09T15:29:05;2.30;;;1.00;;
58222;SDS011;44020;50.890;15.796;2022-09-09T15:31:34;2.80;;;1.30;;
58222;SDS011;44020;50.890;15.796;2022-09-09T15:34:04;4.70;;;1.70;;
58222;SDS011;44020;50.890;15.796;2022-09-09T15:36:34;3.60;;;1.80;;
58222;SDS011;44020;50.890;15.796;2022-09-09T15:39:07;5.00;;;1.80;;
58222;SDS011;44020;50.890;15.796;2022-09-09T15:41:39;4.20;;;1.20;;
58222;SDS011;44020;50.890;15.796;2022-09-09T15:44:06;4.30;;;1.40;;
58222;SDS011;44020;50.890;15.796;2022-09-09T15:46:42;3.30;;;1.40;;
58222;SDS011;44020;50.890;15.796;2022-09-09T15:49:13;3.60;;;1.60;;
58222;SDS011;44020;50.890;15.796;2022-09-09T15:51:46;2.20;;;1.10;;
58222;SDS011;44020;50.890;15.796;2022-09-09T15:54:17;4.00;;;1.70;;
58222;SDS011;44020;50.890;15.796;2022-09-09T15:56:46;4.50;;;1.70;;
58222;SDS011;44020;50.890;15.796;2022-09-09T15:59:16;2.30;;;1.20;;
58222;SDS011;44020;50.890;15.796;2022-09-09T16:01:43;3.40;;;1.30;;
58222;SDS011;44020;50.890;15.796;2022-09-09T16:04:10;4.10;;;1.40;;
58222;SDS011;44020;50.890;15.796;2022-09-09T16:06:37;4.10;;;2.10;;
58222;SDS011;44020;50.890;15.796;2022-09-09T16:09:06;6.40;;;2.40;;
58222;SDS011;44020;50.890;15.796;2022-09-09T16:11:34;5.60;;;2.60;;
58222;SDS011;44020;50.890;15.796;2022-09-09T16:14:03;5.40;;;2.30;;
58222;SDS011;44020;50.890;15.796;2022-09-09T16:16:32;3.10;;;1.50;;
58222;SDS011;44020;50.890;15.796;2022-09-09T16:19:08;2.70;;;1.30;;
58222;SDS011;44020;50.890;15.796;2022-09-09T16:21:40;2.40;;;0.90;;
58222;SDS011;44020;50.890;15.796;2022-09-09T16:24:10;1.70;;;0.90;;
58222;SDS011;44020;50.890;15.796;2022-09-09T16:26:44;4.80;;;1.10;;
58222;SDS011;44020;50.890;15.796;2022-09-09T16:29:14;2.30;;;1.00;;
58222;SDS011;44020;50.890;15.796;2022-09-09T16:31:42;1.80;;;1.20;;
58222;SDS011;44020;50.890;15.796;2022-09-09T16:34:10;2.80;;;1.10;;
58222;SDS011;44020;50.890;15.796;2022-09-09T16:36:38;2.10;;;1.10;;
58222;SDS011;44020;50.890;15.796;2022-09-09T16:39:08;3.10;;;0.90;;
58222;SDS011;44020;50.890;15.796;2022-09-09T16:41:40;1.50;;;1.20;;
58222;SDS011;44020;50.890;15.796;2022-09-09T16:44:11;3.40;;;1.50;;
58222;SDS011;44020;50.890;15.796;2022-09-09T16:46:40;2.70;;;1.10;;
58222;SDS011;44020;50.890;15.796;2022-09-09T16:49:09;2.20;;;1.00;;
58222;SDS011;44020;50.890;15.796;2022-09-09T16:51:43;2.60;;;1.30;;
58222;SDS011;44020;50.890;15.796;2022-09-09T16:54:15;2.60;;;1.30;;
58222;SDS011;44020;50.890;15.796;2022-09-09T16:56:44;3.20;;;1.40;;
58222;SDS011;44020;50.890;15.796;2022-09-09T16:59:14;3.00;;;1.70;;
58222;SDS011;44020;50.890;15.796;2022-09-09T17:01:43;4.00;;;1.80;;
58222;SDS011;44020;50.890;15.796;2022-09-09T17:04:15;3.90;;;1.40;;
58222;SDS011;44020;50.890;15.796;2022-09-09T17:06:47;3.30;;;1.10;;
58222;SDS011;44020;50.890;15.796;2022-09-09T17:09:16;3.90;;;1.60;;
58222;SDS011;44020;50.890;15.796;2022-09-09T17:11:45;3.40;;;1.70;;
58222;SDS011;44020;50.890;15.796;2022-09-09T17:14:14;4.50;;;2.10;;
58222;SDS011;44020;50.890;15.796;2022-09-09T17:16:43;2.70;;;1.60;;
58222;SDS011;44020;50.890;15.796;2022-09-09T17:19:11;3.60;;;2.00;;
58222;SDS011;44020;50.890;15.796;2022-09-09T17:21:38;3.20;;;1.60;;
58222;SDS011;44020;50.890;15.796;2022-09-09T17:24:05;2.80;;;2.20;;
58222;SDS011;44020;50.890;15.796;2022-09-09T17:26:34;7.70;;;2.70;;
58222;SDS011;44020;50.890;15.796;2022-09-09T17:29:01;4.40;;;1.70;;
58222;SDS011;44020;50.890;15.796;2022-09-09T17:31:29;6.10;;;2.20;;
58222;SDS011;44020;50.890;15.796;2022-09-09T17:33:58;4.70;;;2.10;;
58222;SDS011;44020;50.890;15.796;2022-09-09T17:36:27;2.60;;;1.90;;
58222;SDS011;44020;50.890;15.796;2022-09-09T17:38:59;2.60;;;1.90;;
58222;SDS011;44020;50.890;15.796;2022-09-09T17:41:27;2.90;;;2.00;;
58222;SDS011;44020;50.890;15.796;2022-09-09T17:43:59;6.40;;;2.40;;
58222;SDS011;44020;50.890;15.796;2022-09-09T17:46:28;5.10;;;2.60;;
58222;SDS011;44020;50.890;15.796;2022-09-09T17:48:59;5.50;;;2.70;;
58222;SDS011;44020;50.890;15.796;2022-09-09T17:51:32;5.40;;;2.80;;
58222;SDS011;44020;50.890;15.796;2022-09-09T17:54:01;3.70;;;2.50;;
58222;SDS011;44020;50.890;15.796;2022-09-09T17:56:33;3.00;;;2.30;;
58222;SDS011;44020;50.890;15.796;2022-09-09T17:59:00;3.80;;;2.10;;
58222;SDS011;44020;50.890;15.796;2022-09-09T18:01:29;6.30;;;1.80;;
58222;SDS011;44020;50.890;15.796;2022-09-09T18:03:59;4.70;;;2.00;;
58222;SDS011;44020;50.890;15.796;2022-09-09T18:06:29;4.60;;;2.00;;
58222;SDS011;44020;50.890;15.796;2022-09-09T18:09:00;5.30;;;2.30;;
58222;SDS011;44020;50.890;15.796;2022-09-09T18:11:31;5.30;;;2.70;;
58222;SDS011;44020;50.890;15.796;2022-09-09T18:14:00;6.10;;;2.70;;
58222;SDS011;44020;50.890;15.796;2022-09-09T18:16:30;5.00;;;2.70;;
58222;SDS011;44020;50.890;15.796;2022-09-09T18:19:02;4.50;;;2.70;;
58222;SDS011;44020;50.890;15.796;2022-09-09T18:21:31;5.70;;;3.10;;
58222;SDS011;44020;50.890;15.796;2022-09-09T18:24:00;5.30;;;2.60;;
58222;SDS011;44020;50.890;15.796;2022-09-09T18:26:30;5.10;;;3.20;;
58222;SDS011;44020;50.890;15.796;2022-09-09T18:29:05;4.20;;;2.90;;
58222;SDS011;44020;50.890;15.796;2022-09-09T18:31:34;6.80;;;3.20;;
58222;SDS011;44020;50.890;15.796;2022-09-09T18:34:04;3.40;;;3.00;;
58222;SDS011;44020;50.890;15.796;2022-09-09T18:36:34;6.40;;;2.90;;